sensor_id;sensor_type;location;lat;lon;timestamp;pressure;altitude;pressure_sealevel;temperature;humidity
7730;BME280;3908;52.310;7.230;2022-08-01T00:02:47;51371.97;;;-145.83;100.00
7730;BME280;3908;52.310;7.230;2022-08-01T00:05:34;51383.72;;;-145.83;100.00
7730;BME280;3908;52.310;7.230;2022-08-01T00:08:21;51413.06;;;-145.83;100.00
7730;BME280;3908;52.310;7.230;2022-08-01T00:11:09;51338.72;;;-145.83;100.00
7730;BME280;3908;52.310;7.230;2022-08-01T00:13:56;51371.97;;;-145.83;100.00
7730;BME280;3908;52.310;7.230;2022-08-01T00:16:43;51375.88;;;-145.83;100.00
7730;BME280;3908;52.310;7.230;2022-08-01T00:19:30;51352.41;;;-145.83;100.00
7730;BME280;3908;52.310;7.230;2022-08-01T00:22:17;51360.22;;;-145.83;100.00
7730;BME280;3908;52.310;7.230;2022-08-01T00:25:05;51385.66;;;-145.83;100.00
7730;BME280;3908;52.310;7.230;2022-08-01T00:27:54;51358.28;;;-145.83;100.00
7730;BME280;3908;52.310;7.230;2022-08-01T00:30:41;51385.66;;;-145.83;100.00
7730;BME280;3908;52.310;7.230;2022-08-01T00:33:28;51391.53;;;-145.83;100.00
7730;BME280;3908;52.310;7.230;2022-08-01T00:36:15;51381.75;;;-145.83;100.00
7730;BME280;3908;52.310;7.230;2022-08-01T00:39:02;51371.97;;;-145.83;100.00
7730;BME280;3908;52.310;7.230;2022-08-01T00:41:49;51381.75;;;-145.83;100.00
7730;BME280;3908;52.310;7.230;2022-08-01T00:44:38;51364.16;;;-145.83;100.00
7730;BME280;3908;52.310;7.230;2022-08-01T00:47:25;51391.53;;;-145.83;100.00
7730;BME280;3908;52.310;7.230;2022-08-01T00:50:12;51383.72;;;-145.83;100.00
7730;BME280;3908;52.310;7.230;2022-08-01T00:53:00;51383.72;;;-145.83;100.00
7730;BME280;3908;52.310;7.230;2022-08-01T00:55:47;51362.19;;;-145.83;100.00
7730;BME280;3908;52.310;7.230;2022-08-01T00:58:34;51371.97;;;-145.83;100.00
7730;BME280;3908;52.310;7.230;2022-08-01T01:01:23;51358.28;;;-145.83;100.00
7730;BME280;3908;52.310;7.230;2022-08-01T01:04:10;51368.06;;;-145.83;100.00
7730;BME280;3908;52.310;7.230;2022-08-01T01:07:00;51381.75;;;-145.83;100.00
7730;BME280;3908;52.310;7.230;2022-08-01T01:09:56;51416.97;;;-145.83;100.00
7730;BME280;3908;52.310;7.230;2022-08-01T01:12:50;51418.94;;;-145.83;100.00
7730;BME280;3908;52.310;7.230;2022-08-01T01:15:41;51377.84;;;-145.83;100.00
7730;BME280;3908;52.310;7.230;2022-08-01T01:18:33;51395.44;;;-145.83;100.00
7730;BME280;3908;52.310;7.230;2022-08-01T01:21:42;51383.72;;;-145.83;100.00
7730;BME280;3908;52.310;7.230;2022-08-01T01:24:39;51393.50;;;-145.83;100.00
7730;BME280;3908;52.310;7.230;2022-08-01T01:27:48;51356.31;;;-145.83;100.00
7730;BME280;3908;52.310;7.230;2022-08-01T01:30:41;51358.28;;;-145.83;100.00
7730;BME280;3908;52.310;7.230;2022-08-01T01:33:30;51385.66;;;-145.83;100.00
7730;BME280;3908;52.310;7.230;2022-08-01T01:36:19;51403.28;;;-145.83;100.00
7730;BME280;3908;52.310;7.230;2022-08-01T01:39:08;51385.66;;;-145.83;100.00
7730;BME280;3908;52.310;7.230;2022-08-01T01:41:55;51358.28;;;-145.83;100.00
7730;BME280;3908;52.310;7.230;2022-08-01T01:44:43;51393.50;;;-145.83;100.00
7730;BME280;3908;52.310;7.230;2022-08-01T01:47:33;51373.94;;;-145.83;100.00
7730;BME280;3908;52.310;7.230;2022-08-01T01:50:21;51371.97;;;-145.83;100.00
7730;BME280;3908;52.310;7.230;2022-08-01T01:53:10;51389.59;;;-145.83;100.00
7730;BME280;3908;52.310;7.230;2022-08-01T01:56:01;51356.31;;;-145.83;100.00
7730;BME280;3908;52.310;7.230;2022-08-01T01:58:50;51389.59;;;-145.83;100.00
7730;BME280;3908;52.310;7.230;2022-08-01T02:01:38;51385.66;;;-145.83;100.00
7730;BME280;3908;52.310;7.230;2022-08-01T02:04:27;51358.28;;;-145.83;100.00
7730;BME280;3908;52.310;7.230;2022-08-01T02:07:17;51370.03;;;-145.83;100.00
7730;BME280;3908;52.310;7.230;2022-08-01T02:10:06;51354.38;;;-145.83;100.00
7730;BME280;3908;52.310;7.230;2022-08-01T02:12:57;51387.63;;;-145.83;100.00
7730;BME280;3908;52.310;7.230;2022-08-01T02:15:45;51358.28;;;-145.83;100.00
7730;BME280;3908;52.310;7.230;2022-08-01T02:18:33;51362.19;;;-145.83;100.00
7730;BME280;3908;52.310;7.230;2022-08-01T02:21:26;51399.38;;;-145.83;100.00
7730;BME280;3908;52.310;7.230;2022-08-01T02:24:19;51383.72;;;-145.83;100.00
7730;BME280;3908;52.310;7.230;2022-08-01T02:27:12;51371.97;;;-145.83;100.00
7730;BME280;3908;52.310;7.230;2022-08-01T02:30:03;51360.22;;;-145.83;100.00
7730;BME280;3908;52.310;7.230;2022-08-01T02:33:02;51370.03;;;-145.83;100.00
7730;BME280;3908;52.310;7.230;2022-08-01T02:35:54;51397.41;;;-145.83;100.00
7730;BME280;3908;52.310;7.230;2022-08-01T02:38:45;51407.19;;;-145.83;100.00
7730;BME280;3908;52.310;7.230;2022-08-01T02:41:36;51375.88;;;-145.83;100.00
7730;BME280;3908;52.310;7.230;2022-08-01T02:44:30;51356.31;;;-145.83;100.00
7730;BME280;3908;52.310;7.230;2022-08-01T02:47:19;51387.63;;;-145.83;100.00
7730;BME280;3908;52.310;7.230;2022-08-01T02:50:09;51377.84;;;-145.83;100.00
7730;BME280;3908;52.310;7.230;2022-08-01T02:52:57;51368.06;;;-145.83;100.00
7730;BME280;3908;52.310;7.230;2022-08-01T02:55:47;51352.41;;;-145.83;100.00
7730;BME280;3908;52.310;7.230;2022-08-01T02:58:35;51420.88;;;-145.83;100.00
7730;BME280;3908;52.310;7.230;2022-08-01T03:01:23;51387.63;;;-145.83;100.00
7730;BME280;3908;52.310;7.230;2022-08-01T03:04:10;51356.31;;;-145.83;100.00
7730;BME280;3908;52.310;7.230;2022-08-01T03:07:00;51362.19;;;-145.83;100.00
7730;BME280;3908;52.310;7.230;2022-08-01T03:09:48;51393.50;;;-145.83;100.00
7730;BME280;3908;52.310;7.230;2022-08-01T03:12:38;51407.19;;;-145.83;100.00
7730;BME280;3908;52.310;7.230;2022-08-01T03:15:27;51403.28;;;-145.83;100.00
7730;BME280;3908;52.310;7.230;2022-08-01T03:18:17;51413.06;;;-145.83;100.00
7730;BME280;3908;52.310;7.230;2022-08-01T03:21:06;51391.53;;;-145.83;100.00
7730;BME280;3908;52.310;7.230;2022-08-01T03:23:58;51387.63;;;-145.83;100.00
7730;BME280;3908;52.310;7.230;2022-08-01T03:26:47;51379.81;;;-145.83;100.00
7730;BME280;3908;52.310;7.230;2022-08-01T03:29:37;51368.06;;;-145.83;100.00
7730;BME280;3908;52.310;7.230;2022-08-01T03:32:26;51395.44;;;-145.83;100.00
7730;BME280;3908;52.310;7.230;2022-08-01T03:35:14;51450.22;;;-145.83;100.00
7730;BME280;3908;52.310;7.230;2022-08-01T03:38:02;51395.44;;;-145.83;100.00
7730;BME280;3908;52.310;7.230;2022-08-01T03:40:53;51399.38;;;-145.83;100.00
7730;BME280;3908;52.310;7.230;2022-08-01T03:43:43;51395.44;;;-145.83;100.00
7730;BME280;3908;52.310;7.230;2022-08-01T03:46:39;51395.44;;;-145.83;100.00
7730;BME280;3908;52.310;7.230;2022-08-01T03:49:35;51385.66;;;-145.83;100.00
7730;BME280;3908;52.310;7.230;2022-08-01T03:52:25;51401.31;;;-145.83;100.00
7730;BME280;3908;52.310;7.230;2022-08-01T03:55:15;51383.72;;;-145.83;100.00
7730;BME280;3908;52.310;7.230;2022-08-01T03:58:04;51420.88;;;-145.83;100.00
7730;BME280;3908;52.310;7.230;2022-08-01T04:00:52;51393.50;;;-145.83;100.00
7730;BME280;3908;52.310;7.230;2022-08-01T04:03:40;51381.75;;;-145.83;100.00
7730;BME280;3908;52.310;7.230;2022-08-01T04:06:29;51409.16;;;-145.83;100.00
7730;BME280;3908;52.310;7.230;2022-08-01T04:09:16;51391.53;;;-145.83;100.00
7730;BME280;3908;52.310;7.230;2022-08-01T04:12:03;51387.63;;;-145.83;100.00
7730;BME280;3908;52.310;7.230;2022-08-01T04:14:50;51436.53;;;-145.83;100.00
7730;BME280;3908;52.310;7.230;2022-08-01T04:17:37;51383.72;;;-145.83;100.00
7730;BME280;3908;52.310;7.230;2022-08-01T04:20:26;51368.06;;;-145.83;100.00
7730;BME280;3908;52.310;7.230;2022-08-01T04:23:15;51397.41;;;-145.83;100.00
7730;BME280;3908;52.310;7.230;2022-08-01T04:26:04;51385.66;;;-145.83;100.00
7730;BME280;3908;52.310;7.230;2022-08-01T04:28:53;51422.84;;;-145.83;100.00
7730;BME280;3908;52.310;7.230;2022-08-01T04:31:43;51377.84;;;-145.83;100.00
7730;BME280;3908;52.310;7.230;2022-08-01T04:34:33;51411.09;;;-145.83;100.00
7730;BME280;3908;52.310;7.230;2022-08-01T04:37:22;51375.88;;;-145.83;100.00
7730;BME280;3908;52.310;7.230;2022-08-01T04:40:11;51362.19;;;-145.83;100.00
7730;BME280;3908;52.310;7.230;2022-08-01T04:43:00;51391.53;;;-145.83;100.00
7730;BME280;3908;52.310;7.230;2022-08-01T04:45:47;51391.53;;;-145.83;100.00
7730;BME280;3908;52.310;7.230;2022-08-01T04:48:37;51401.31;;;-145.83;100.00
7730;BME280;3908;52.310;7.230;2022-08-01T04:51:24;51381.75;;;-145.83;100.00
7730;BME280;3908;52.310;7.230;2022-08-01T04:54:13;51395.44;;;-145.83;100.00
7730;BME280;3908;52.310;7.230;2022-08-01T04:57:00;51375.88;;;-145.83;100.00
7730;BME280;3908;52.310;7.230;2022-08-01T04:59:47;51385.66;;;-145.83;100.00
7730;BME280;3908;52.310;7.230;2022-08-01T05:02:35;51395.44;;;-145.83;100.00
7730;BME280;3908;52.310;7.230;2022-08-01T05:05:22;51401.31;;;-145.83;100.00
7730;BME280;3908;52.310;7.230;2022-08-01T05:08:11;51415.00;;;-145.83;100.00
7730;BME280;3908;52.310;7.230;2022-08-01T05:11:00;51375.88;;;-145.83;100.00
7730;BME280;3908;52.310;7.230;2022-08-01T05:13:47;51385.66;;;-145.83;100.00
7730;BME280;3908;52.310;7.230;2022-08-01T05:16:34;51377.84;;;-145.83;100.00
7730;BME280;3908;52.310;7.230;2022-08-01T05:19:22;51411.09;;;-145.83;100.00
7730;BME280;3908;52.310;7.230;2022-08-01T05:22:09;51373.94;;;-145.83;100.00
7730;BME280;3908;52.310;7.230;2022-08-01T05:24:56;51375.88;;;-145.83;100.00
7730;BME280;3908;52.310;7.230;2022-08-01T05:27:46;51379.81;;;-145.83;100.00
7730;BME280;3908;52.310;7.230;2022-08-01T05:30:33;51387.63;;;-145.83;100.00
7730;BME280;3908;52.310;7.230;2022-08-01T05:33:20;51385.66;;;-145.83;100.00
7730;BME280;3908;52.310;7.230;2022-08-01T05:36:07;51389.59;;;-145.83;100.00
7730;BME280;3908;52.310;7.230;2022-08-01T05:38:54;51413.06;;;-145.83;100.00
7730;BME280;3908;52.310;7.230;2022-08-01T05:41:41;51366.09;;;-145.83;100.00
7730;BME280;3908;52.310;7.230;2022-08-01T05:44:30;51377.84;;;-145.83;100.00
7730;BME280;3908;52.310;7.230;2022-08-01T05:47:17;51415.00;;;-145.83;100.00
7730;BME280;3908;52.310;7.230;2022-08-01T05:50:04;51438.50;;;-145.83;100.00
7730;BME280;3908;52.310;7.230;2022-08-01T05:52:52;51442.41;;;-145.83;100.00
7730;BME280;3908;52.310;7.230;2022-08-01T05:55:38;51415.00;;;-145.83;100.00
7730;BME280;3908;52.310;7.230;2022-08-01T05:58:25;51397.41;;;-145.83;100.00
7730;BME280;3908;52.310;7.230;2022-08-01T06:01:14;51411.09;;;-145.83;100.00
7730;BME280;3908;52.310;7.230;2022-08-01T06:04:01;51385.66;;;-145.83;100.00
7730;BME280;3908;52.310;7.230;2022-08-01T06:06:48;51418.94;;;-145.83;100.00
7730;BME280;3908;52.310;7.230;2022-08-01T06:09:35;51397.41;;;-145.83;100.00
7730;BME280;3908;52.310;7.230;2022-08-01T06:12:22;51383.72;;;-145.83;100.00
7730;BME280;3908;52.310;7.230;2022-08-01T06:15:09;51403.28;;;-145.83;100.00
7730;BME280;3908;52.310;7.230;2022-08-01T06:17:58;51387.63;;;-145.83;100.00
7730;BME280;3908;52.310;7.230;2022-08-01T06:20:45;51399.38;;;-145.83;100.00
7730;BME280;3908;52.310;7.230;2022-08-01T06:23:33;51413.06;;;-145.83;100.00
7730;BME280;3908;52.310;7.230;2022-08-01T06:26:20;51405.22;;;-145.83;100.00
7730;BME280;3908;52.310;7.230;2022-08-01T06:29:07;51409.16;;;-145.83;100.00
7730;BME280;3908;52.310;7.230;2022-08-01T06:31:54;51434.56;;;-145.83;100.00
7730;BME280;3908;52.310;7.230;2022-08-01T06:34:42;51385.66;;;-145.83;100.00
7730;BME280;3908;52.310;7.230;2022-08-01T06:37:30;51403.28;;;-145.83;100.00
7730;BME280;3908;52.310;7.230;2022-08-01T06:40:17;51393.50;;;-145.83;100.00
7730;BME280;3908;52.310;7.230;2022-08-01T06:43:04;51411.09;;;-145.83;100.00
7730;BME280;3908;52.310;7.230;2022-08-01T06:45:51;51420.88;;;-145.83;100.00
7730;BME280;3908;52.310;7.230;2022-08-01T06:48:38;51409.16;;;-145.83;100.00
7730;BME280;3908;52.310;7.230;2022-08-01T06:51:26;51436.53;;;-145.83;100.00
7730;BME280;3908;52.310;7.230;2022-08-01T06:54:13;51428.72;;;-145.83;100.00
7730;BME280;3908;52.310;7.230;2022-08-01T06:57:04;51395.44;;;-145.83;100.00
7730;BME280;3908;52.310;7.230;2022-08-01T06:59:52;51405.22;;;-145.83;100.00
7730;BME280;3908;52.310;7.230;2022-08-01T07:02:39;51381.75;;;-145.83;100.00
7730;BME280;3908;52.310;7.230;2022-08-01T07:05:26;51420.88;;;-145.83;100.00
7730;BME280;3908;52.310;7.230;2022-08-01T07:08:17;51368.06;;;-145.83;100.00
7730;BME280;3908;52.310;7.230;2022-08-01T07:11:04;51395.44;;;-145.83;100.00
7730;BME280;3908;52.310;7.230;2022-08-01T07:13:51;51436.53;;;-145.83;100.00
7730;BME280;3908;52.310;7.230;2022-08-01T07:16:38;51383.72;;;-145.83;100.00
7730;BME280;3908;52.310;7.230;2022-08-01T07:19:25;51387.63;;;-145.83;100.00
7730;BME280;3908;52.310;7.230;2022-08-01T07:22:13;51424.78;;;-145.83;100.00
7730;BME280;3908;52.310;7.230;2022-08-01T07:25:04;51436.53;;;-145.83;100.00
7730;BME280;3908;52.310;7.230;2022-08-01T07:27:51;51393.50;;;-145.83;100.00
7730;BME280;3908;52.310;7.230;2022-08-01T07:30:38;51438.50;;;-145.83;100.00
7730;BME280;3908;52.310;7.230;2022-08-01T07:33:27;51432.63;;;-145.83;100.00
7730;BME280;3908;52.310;7.230;2022-08-01T07:36:15;51397.41;;;-145.83;100.00
7730;BME280;3908;52.310;7.230;2022-08-01T07:39:02;51454.13;;;-145.83;100.00
7730;BME280;3908;52.310;7.230;2022-08-01T07:41:50;51432.63;;;-145.83;100.00
7730;BME280;3908;52.310;7.230;2022-08-01T07:44:37;51420.88;;;-145.83;100.00
7730;BME280;3908;52.310;7.230;2022-08-01T07:47:24;51456.09;;;-145.83;100.00
7730;BME280;3908;52.310;7.230;2022-08-01T07:50:11;51379.81;;;-145.83;100.00
7730;BME280;3908;52.310;7.230;2022-08-01T07:52:59;51430.66;;;-145.83;100.00
7730;BME280;3908;52.310;7.230;2022-08-01T07:55:46;51444.34;;;-145.83;100.00
7730;BME280;3908;52.310;7.230;2022-08-01T07:58:35;51415.00;;;-145.83;100.00
7730;BME280;3908;52.310;7.230;2022-08-01T08:01:22;51399.38;;;-145.83;100.00
7730;BME280;3908;52.310;7.230;2022-08-01T08:04:09;51411.09;;;-145.83;100.00
7730;BME280;3908;52.310;7.230;2022-08-01T08:06:56;51416.97;;;-145.83;100.00
7730;BME280;3908;52.310;7.230;2022-08-01T08:09:43;51399.38;;;-145.83;100.00
7730;BME280;3908;52.310;7.230;2022-08-01T08:12:30;51403.28;;;-145.83;100.00
7730;BME280;3908;52.310;7.230;2022-08-01T08:15:18;51401.31;;;-145.83;100.00
7730;BME280;3908;52.310;7.230;2022-08-01T08:18:06;51377.84;;;-145.83;100.00
7730;BME280;3908;52.310;7.230;2022-08-01T08:20:53;51432.63;;;-145.83;100.00
7730;BME280;3908;52.310;7.230;2022-08-01T08:23:40;51440.44;;;-145.83;100.00
7730;BME280;3908;52.310;7.230;2022-08-01T08:26:45;51430.66;;;-145.83;100.00
7730;BME280;3908;52.310;7.230;2022-08-01T08:29:32;51415.00;;;-145.83;99.70
7730;BME280;3908;52.310;7.230;2022-08-01T08:32:20;51383.72;;;-145.83;97.22
7730;BME280;3908;52.310;7.230;2022-08-01T08:35:08;51442.41;;;-145.83;96.11
7730;BME280;3908;52.310;7.230;2022-08-01T08:37:55;51418.94;;;-145.83;94.72
7730;BME280;3908;52.310;7.230;2022-08-01T08:40:42;51416.97;;;-145.83;93.64
7730;BME280;3908;52.310;7.230;2022-08-01T08:43:29;51432.63;;;-145.83;90.27
7730;BME280;3908;52.310;7.230;2022-08-01T08:46:16;51430.66;;;-145.83;88.92
7730;BME280;3908;52.310;7.230;2022-08-01T08:49:06;51413.06;;;-145.83;90.08
7730;BME280;3908;52.310;7.230;2022-08-01T08:51:58;51467.84;;;-145.83;88.86
7730;BME280;3908;52.310;7.230;2022-08-01T08:54:46;51456.09;;;-145.83;86.13
7730;BME280;3908;52.310;7.230;2022-08-01T08:57:34;51442.41;;;-145.83;84.83
7730;BME280;3908;52.310;7.230;2022-08-01T09:00:21;51452.19;;;-145.83;82.87
7730;BME280;3908;52.310;7.230;2022-08-01T09:03:08;51440.44;;;-145.83;83.42
7730;BME280;3908;52.310;7.230;2022-08-01T09:05:57;51436.53;;;-145.83;84.30
7730;BME280;3908;52.310;7.230;2022-08-01T09:08:44;51442.41;;;-145.83;86.26
7730;BME280;3908;52.310;7.230;2022-08-01T09:11:31;51438.50;;;-145.83;86.06
7730;BME280;3908;52.310;7.230;2022-08-01T09:14:18;51460.00;;;-145.83;86.95
7730;BME280;3908;52.310;7.230;2022-08-01T09:17:09;51458.06;;;-145.83;85.21
7730;BME280;3908;52.310;7.230;2022-08-01T09:19:58;51426.75;;;-145.83;84.83
7730;BME280;3908;52.310;7.230;2022-08-01T09:22:46;51428.72;;;-145.83;84.68
7730;BME280;3908;52.310;7.230;2022-08-01T09:25:51;51418.94;;;-145.83;79.54
7730;BME280;3908;52.310;7.230;2022-08-01T09:28:40;51456.09;;;-145.83;77.45
7730;BME280;3908;52.310;7.230;2022-08-01T09:31:28;51460.00;;;-145.83;77.23
7730;BME280;3908;52.310;7.230;2022-08-01T09:34:16;51403.28;;;-145.83;73.35
7730;BME280;3908;52.310;7.230;2022-08-01T09:37:03;51442.41;;;-145.83;71.65
7730;BME280;3908;52.310;7.230;2022-08-01T09:39:55;51428.72;;;-145.83;71.29
7730;BME280;3908;52.310;7.230;2022-08-01T09:42:43;51465.88;;;-145.83;72.63
7730;BME280;3908;52.310;7.230;2022-08-01T09:45:34;51413.06;;;-145.83;67.89
7730;BME280;3908;52.310;7.230;2022-08-01T09:48:22;51418.94;;;-145.83;67.84
7730;BME280;3908;52.310;7.230;2022-08-01T09:51:09;51424.78;;;-145.83;70.63
7730;BME280;3908;52.310;7.230;2022-08-01T09:53:57;51442.41;;;-145.83;69.78
7730;BME280;3908;52.310;7.230;2022-08-01T09:56:46;51434.56;;;-145.83;70.20
7730;BME280;3908;52.310;7.230;2022-08-01T09:59:34;51442.41;;;-145.83;70.99
7730;BME280;3908;52.310;7.230;2022-08-01T10:02:28;51432.63;;;-145.83;71.02
7730;BME280;3908;52.310;7.230;2022-08-01T10:05:16;51456.09;;;-145.83;69.94
7730;BME280;3908;52.310;7.230;2022-08-01T10:08:04;51440.44;;;-145.83;70.56
7730;BME280;3908;52.310;7.230;2022-08-01T10:11:07;51463.91;;;-145.83;68.19
7730;BME280;3908;52.310;7.230;2022-08-01T10:13:56;51438.50;;;-145.83;68.46
7730;BME280;3908;52.310;7.230;2022-08-01T10:16:45;51428.72;;;-145.83;67.74
7730;BME280;3908;52.310;7.230;2022-08-01T10:19:36;51461.97;;;-145.83;67.36
7730;BME280;3908;52.310;7.230;2022-08-01T10:22:24;51483.47;;;-145.83;66.93
7730;BME280;3908;52.310;7.230;2022-08-01T10:25:13;51479.56;;;-145.83;66.69
7730;BME280;3908;52.310;7.230;2022-08-01T10:28:10;51416.97;;;-145.83;66.80
7730;BME280;3908;52.310;7.230;2022-08-01T10:31:01;51465.88;;;-145.83;66.90
7730;BME280;3908;52.310;7.230;2022-08-01T10:33:49;51415.00;;;-145.83;65.50
7730;BME280;3908;52.310;7.230;2022-08-01T10:36:37;51446.31;;;-145.83;65.83
7730;BME280;3908;52.310;7.230;2022-08-01T10:39:24;51450.22;;;-145.83;66.18
7730;BME280;3908;52.310;7.230;2022-08-01T10:42:13;51495.22;;;-145.83;63.41
7730;BME280;3908;52.310;7.230;2022-08-01T10:45:01;51430.66;;;-145.83;64.11
7730;BME280;3908;52.310;7.230;2022-08-01T10:47:54;51446.31;;;-145.83;62.38
7730;BME280;3908;52.310;7.230;2022-08-01T10:50:46;51487.41;;;-145.83;61.66
7730;BME280;3908;52.310;7.230;2022-08-01T10:53:34;51438.50;;;-145.83;59.65
7730;BME280;3908;52.310;7.230;2022-08-01T10:56:21;51458.06;;;-145.83;59.85
7730;BME280;3908;52.310;7.230;2022-08-01T10:59:09;51436.53;;;-145.83;57.90
7730;BME280;3908;52.310;7.230;2022-08-01T11:01:57;51495.22;;;-145.83;58.46
7730;BME280;3908;52.310;7.230;2022-08-01T11:04:51;51458.06;;;-145.83;59.22
7730;BME280;3908;52.310;7.230;2022-08-01T11:07:48;51463.91;;;-145.83;59.34
7730;BME280;3908;52.310;7.230;2022-08-01T11:10:38;51501.09;;;-145.83;59.47
7730;BME280;3908;52.310;7.230;2022-08-01T11:16:46;51448.28;;;-145.83;57.82
7730;BME280;3908;52.310;7.230;2022-08-01T11:20:05;51458.06;;;-145.83;58.38
7730;BME280;3908;52.310;7.230;2022-08-01T11:23:22;51477.63;;;-145.83;58.08
7730;BME280;3908;52.310;7.230;2022-08-01T11:26:15;51506.97;;;-145.83;56.51
7730;BME280;3908;52.310;7.230;2022-08-01T11:29:16;51477.63;;;-145.83;58.74
7730;BME280;3908;52.310;7.230;2022-08-01T11:32:23;51463.91;;;-145.83;56.81
7730;BME280;3908;52.310;7.230;2022-08-01T11:35:12;51465.88;;;-145.83;58.58
7730;BME280;3908;52.310;7.230;2022-08-01T11:38:22;51428.72;;;-145.83;57.19
7730;BME280;3908;52.310;7.230;2022-08-01T11:41:10;51448.28;;;-145.83;58.29
7730;BME280;3908;52.310;7.230;2022-08-01T11:43:58;51479.56;;;-145.83;58.76
7730;BME280;3908;52.310;7.230;2022-08-01T11:47:02;51512.84;;;-145.83;57.63
7730;BME280;3908;52.310;7.230;2022-08-01T11:49:49;51475.66;;;-145.83;57.34
7730;BME280;3908;52.310;7.230;2022-08-01T11:52:42;51477.63;;;-145.83;57.89
7730;BME280;3908;52.310;7.230;2022-08-01T11:55:31;51483.47;;;-145.83;58.49
7730;BME280;3908;52.310;7.230;2022-08-01T11:58:22;51465.88;;;-145.83;59.24
7730;BME280;3908;52.310;7.230;2022-08-01T12:01:12;51442.41;;;-145.83;59.44
7730;BME280;3908;52.310;7.230;2022-08-01T12:04:00;51491.31;;;-145.83;58.64
7730;BME280;3908;52.310;7.230;2022-08-01T12:06:47;51479.56;;;-145.83;59.93
7730;BME280;3908;52.310;7.230;2022-08-01T12:09:35;51434.56;;;-145.83;59.36
7730;BME280;3908;52.310;7.230;2022-08-01T12:12:22;51514.78;;;-145.83;58.67
7730;BME280;3908;52.310;7.230;2022-08-01T12:15:11;51487.41;;;-145.83;57.30
7730;BME280;3908;52.310;7.230;2022-08-01T12:17:59;51463.91;;;-145.83;57.82
7730;BME280;3908;52.310;7.230;2022-08-01T12:20:47;51491.31;;;-145.83;56.74
7730;BME280;3908;52.310;7.230;2022-08-01T12:23:34;51503.06;;;-145.83;57.33
7730;BME280;3908;52.310;7.230;2022-08-01T12:26:22;51471.75;;;-145.83;57.25
7730;BME280;3908;52.310;7.230;2022-08-01T12:29:09;51508.91;;;-145.83;57.66
7730;BME280;3908;52.310;7.230;2022-08-01T12:31:56;51485.44;;;-145.83;58.30
7730;BME280;3908;52.310;7.230;2022-08-01T12:34:43;51481.53;;;-145.83;57.84
7730;BME280;3908;52.310;7.230;2022-08-01T12:37:30;51467.84;;;-145.83;56.67
7730;BME280;3908;52.310;7.230;2022-08-01T12:40:20;51460.00;;;-145.83;56.15
7730;BME280;3908;52.310;7.230;2022-08-01T12:43:09;51481.53;;;-145.83;55.53
7730;BME280;3908;52.310;7.230;2022-08-01T12:45:58;51481.53;;;-145.83;54.41
7730;BME280;3908;52.310;7.230;2022-08-01T12:48:47;51461.97;;;-145.83;54.97
7730;BME280;3908;52.310;7.230;2022-08-01T12:51:34;51495.22;;;-145.83;56.09
7730;BME280;3908;52.310;7.230;2022-08-01T12:54:21;51458.06;;;-145.83;56.85
7730;BME280;3908;52.310;7.230;2022-08-01T12:57:21;51487.41;;;-145.83;57.03
7730;BME280;3908;52.310;7.230;2022-08-01T13:00:13;51465.88;;;-145.83;56.24
7730;BME280;3908;52.310;7.230;2022-08-01T13:03:02;51485.44;;;-145.83;55.07
7730;BME280;3908;52.310;7.230;2022-08-01T13:05:52;51458.06;;;-145.83;54.72
7730;BME280;3908;52.310;7.230;2022-08-01T13:08:40;51475.66;;;-145.83;54.42
7730;BME280;3908;52.310;7.230;2022-08-01T13:11:27;51489.34;;;-145.83;54.38
7730;BME280;3908;52.310;7.230;2022-08-01T13:14:26;51499.13;;;-145.83;53.62
7730;BME280;3908;52.310;7.230;2022-08-01T13:17:33;51481.53;;;-145.83;54.32
7730;BME280;3908;52.310;7.230;2022-08-01T13:20:31;51505.00;;;-145.83;54.96
7730;BME280;3908;52.310;7.230;2022-08-01T13:23:19;51493.25;;;-145.83;51.48
7730;BME280;3908;52.310;7.230;2022-08-01T13:26:07;51471.75;;;-145.83;52.47
7730;BME280;3908;52.310;7.230;2022-08-01T13:29:03;51512.84;;;-145.83;54.39
7730;BME280;3908;52.310;7.230;2022-08-01T13:31:52;51489.34;;;-145.83;52.72
7730;BME280;3908;52.310;7.230;2022-08-01T13:34:40;51477.63;;;-145.83;53.36
7730;BME280;3908;52.310;7.230;2022-08-01T13:37:27;51489.34;;;-145.83;53.99
7730;BME280;3908;52.310;7.230;2022-08-01T13:40:23;51479.56;;;-145.83;54.70
7730;BME280;3908;52.310;7.230;2022-08-01T13:43:10;51499.13;;;-145.83;56.23
7730;BME280;3908;52.310;7.230;2022-08-01T13:45:58;51495.22;;;-145.83;53.95
7730;BME280;3908;52.310;7.230;2022-08-01T13:48:45;51483.47;;;-145.83;53.14
7730;BME280;3908;52.310;7.230;2022-08-01T13:51:33;51481.53;;;-145.83;52.40
7730;BME280;3908;52.310;7.230;2022-08-01T13:54:20;51493.25;;;-145.83;53.03
7730;BME280;3908;52.310;7.230;2022-08-01T13:57:09;51489.34;;;-145.83;53.85
7730;BME280;3908;52.310;7.230;2022-08-01T13:59:56;51477.63;;;-145.83;53.84
7730;BME280;3908;52.310;7.230;2022-08-01T14:02:45;51495.22;;;-145.83;55.34
7730;BME280;3908;52.310;7.230;2022-08-01T14:05:32;51487.41;;;-145.83;54.81
7730;BME280;3908;52.310;7.230;2022-08-01T14:08:20;51493.25;;;-145.83;54.54
7730;BME280;3908;52.310;7.230;2022-08-01T14:11:08;51463.91;;;-145.83;53.33
7730;BME280;3908;52.310;7.230;2022-08-01T14:13:55;51481.53;;;-145.83;53.70
7730;BME280;3908;52.310;7.230;2022-08-01T14:16:42;51475.66;;;-145.83;51.61
7730;BME280;3908;52.310;7.230;2022-08-01T14:19:30;51493.25;;;-145.83;53.83
7730;BME280;3908;52.310;7.230;2022-08-01T14:22:17;51499.13;;;-145.83;51.84
7730;BME280;3908;52.310;7.230;2022-08-01T14:25:07;51506.97;;;-145.83;53.38
7730;BME280;3908;52.310;7.230;2022-08-01T14:27:54;51489.34;;;-145.83;54.67
7730;BME280;3908;52.310;7.230;2022-08-01T14:30:41;51422.84;;;-145.83;56.05
7730;BME280;3908;52.310;7.230;2022-08-01T14:33:28;51526.53;;;-145.83;55.78
7730;BME280;3908;52.310;7.230;2022-08-01T14:36:16;51479.56;;;-145.83;55.39
7730;BME280;3908;52.310;7.230;2022-08-01T14:39:03;51499.13;;;-145.83;54.26
7730;BME280;3908;52.310;7.230;2022-08-01T14:41:51;51512.84;;;-145.83;55.29
7730;BME280;3908;52.310;7.230;2022-08-01T14:44:38;51479.56;;;-145.83;54.56
7730;BME280;3908;52.310;7.230;2022-08-01T14:47:25;51448.28;;;-145.83;54.94
7730;BME280;3908;52.310;7.230;2022-08-01T14:50:14;51465.88;;;-145.83;55.68
7730;BME280;3908;52.310;7.230;2022-08-01T14:53:02;51450.22;;;-145.83;54.72
7730;BME280;3908;52.310;7.230;2022-08-01T14:55:49;51501.09;;;-145.83;54.56